Andover, New York
Current Conditions -  °F | °C
As of 3:56 PM on Sunday 23 Nov 2014 (Local Time) from KELZ Reporting Station
Clear Clear  
Wind Chill: 52°   Ceiling: Unl
Heat Index: 52°   Visibility: 10mi
Dew Point: 34°   Wind: 12mph
Humidity: 50%   Direction: 170°S
Pressure: 29.97"   Gusts: 20mph
Location:  42.16°N, 77.8°W
Report Text: KELZ 232056Z AUTO 17010G17KT 10SM CLR 11/01 A2997 RMK AO2 SLP153 T01110011 56023
Loading
Personal Weather Stations






























Interactive Weather Map New forecast layout! Learn more

10-Day Weather Forecast

Advertisements
Track Severe Weather on mobile